createdAt,value
2023-04-25T00:01:19.737Z,88.50
2023-04-25T00:03:47.318Z,88.70
2023-04-25T00:06:14.933Z,88.80
2023-04-25T00:08:47.338Z,88.70
2023-04-25T00:11:14.604Z,89.00
2023-04-25T00:13:42.714Z,89.40
2023-04-25T00:16:17.739Z,89.60
2023-04-25T00:18:47.189Z,89.70
2023-04-25T00:21:14.496Z,89.60
2023-04-25T00:23:42.287Z,89.80
2023-04-25T00:26:09.588Z,89.80
2023-04-25T00:28:36.826Z,90.00
2023-04-25T00:31:04.655Z,90.00
2023-04-25T00:33:31.926Z,90.10
2023-04-25T00:35:59.381Z,90.20
2023-04-25T00:38:26.624Z,90.20
2023-04-25T00:40:54.868Z,90.30
2023-04-25T00:43:22.516Z,90.40
2023-04-25T00:45:51.766Z,90.50
2023-04-25T00:49:34.556Z,90.60
2023-04-25T00:52:01.971Z,90.30
2023-04-25T00:54:29.497Z,90.40
2023-04-25T01:01:46.526Z,90.30
2023-04-25T01:04:14.792Z,89.40
2023-04-25T01:06:43.252Z,89.30
2023-04-25T01:09:11.560Z,89.10
2023-04-25T01:11:41.050Z,88.70
2023-04-25T01:14:08.397Z,88.80
2023-04-25T01:16:36.163Z,88.80
2023-04-25T01:19:12.267Z,88.50
2023-04-25T01:21:40.100Z,88.30
2023-04-25T01:24:08.242Z,88.80
2023-04-25T01:26:36.779Z,89.30
2023-04-25T01:29:07.163Z,88.90
2023-04-25T01:32:01.390Z,88.90
2023-04-25T01:34:28.763Z,88.70
2023-04-25T01:37:00.675Z,88.60
2023-04-25T01:39:30.506Z,88.80
2023-04-25T01:44:41.340Z,88.40
2023-04-25T01:47:08.725Z,88.30
2023-04-25T01:49:36.099Z,89.00
2023-04-25T01:52:07.221Z,88.50
2023-04-25T01:54:54.166Z,89.00
2023-04-25T01:57:23.315Z,88.50
2023-04-25T01:59:51.306Z,88.90
2023-04-25T02:02:38.104Z,88.50
2023-04-25T02:05:08.068Z,88.40
2023-04-25T02:11:10.501Z,88.30
2023-04-25T02:13:43.993Z,88.40
2023-04-25T02:16:31.702Z,88.40
2023-04-25T02:19:01.051Z,88.50
2023-04-25T02:21:28.395Z,88.20
2023-04-25T02:23:56.343Z,88.60
2023-04-25T02:26:24.664Z,88.90
2023-04-25T02:28:52.652Z,88.70
2023-04-25T02:31:21.035Z,88.40
2023-04-25T02:33:49.413Z,88.10
2023-04-25T02:36:17.063Z,88.30
2023-04-25T02:38:46.200Z,88.20
2023-04-25T02:41:13.510Z,88.70
2023-04-25T02:43:40.847Z,88.50
2023-04-25T02:46:08.861Z,88.40
2023-04-25T02:48:38.335Z,87.90
2023-04-25T02:51:05.914Z,87.50
2023-04-25T02:53:33.403Z,87.70
2023-04-25T02:56:01.194Z,87.40
2023-04-25T02:58:29.042Z,88.00
2023-04-25T03:00:56.704Z,88.30
2023-04-25T03:03:24.174Z,88.20
2023-04-25T03:06:18.111Z,87.80
2023-04-25T03:08:45.479Z,87.80
2023-04-25T03:11:13.057Z,87.30
2023-04-25T03:13:42.759Z,86.90
2023-04-25T03:16:11.954Z,87.30
2023-04-25T03:18:39.799Z,87.40
2023-04-25T03:21:07.831Z,88.10
2023-04-25T03:23:35.277Z,87.80
2023-04-25T03:26:03.045Z,87.80
2023-04-25T03:28:31.433Z,88.20
2023-04-25T03:30:59.376Z,87.10
2023-04-25T03:33:27.294Z,86.90
2023-04-25T03:35:54.697Z,87.00
2023-04-25T03:38:22.177Z,87.20
2023-04-25T03:40:51.908Z,87.20
2023-04-25T03:43:23.581Z,85.90
2023-04-25T03:45:56.706Z,86.00
2023-04-25T03:48:36.104Z,86.10
2023-04-25T03:51:04.286Z,85.50
2023-04-25T03:53:34.033Z,86.10
2023-04-25T03:56:27.167Z,85.20
2023-04-25T03:59:02.128Z,85.60
2023-04-25T04:02:21.827Z,85.80
2023-04-25T04:04:50.466Z,85.90
2023-04-25T04:07:43.988Z,85.10
2023-04-25T04:10:38.347Z,85.40
2023-04-25T04:13:56.871Z,84.90
2023-04-25T04:16:24.763Z,85.20
2023-04-25T04:18:55.488Z,85.00
2023-04-25T04:21:22.810Z,85.10
2023-04-25T04:28:33.933Z,85.30
2023-04-25T04:31:06.896Z,84.50
2023-04-25T04:33:34.358Z,84.60
2023-04-25T04:36:05.066Z,84.90
2023-04-25T04:38:33.085Z,84.00
2023-04-25T04:53:42.867Z,83.00
2023-04-25T04:56:19.370Z,82.70
2023-04-25T04:59:34.584Z,82.10
2023-04-25T05:15:19.663Z,82.10
2023-04-25T05:18:06.074Z,80.40
2023-04-25T05:20:48.166Z,82.30
2023-04-25T05:23:35.844Z,82.40
2023-04-25T05:30:07.952Z,82.40
2023-04-25T05:33:36.936Z,82.60
2023-04-25T05:36:05.407Z,82.50
2023-04-25T05:47:32.880Z,82.30
2023-04-25T05:51:08.219Z,80.80
2023-04-25T05:58:36.592Z,80.40
2023-04-25T06:01:04.913Z,80.00
2023-04-25T06:03:32.720Z,79.00
2023-04-25T06:06:00.459Z,76.90
2023-04-25T06:08:27.816Z,77.30
2023-04-25T06:10:55.283Z,77.20
2023-04-25T06:13:24.130Z,76.10
2023-04-25T06:15:51.774Z,75.60
2023-04-25T06:18:20.918Z,76.40
2023-04-25T06:20:48.392Z,76.70
2023-04-25T06:23:18.062Z,78.50
2023-04-25T06:25:54.714Z,76.20
2023-04-25T06:28:23.129Z,74.90
2023-04-25T06:30:50.948Z,75.50
2023-04-25T06:33:21.429Z,74.60
2023-04-25T06:38:33.713Z,71.90
2023-04-25T06:49:52.125Z,73.90
2023-04-25T06:52:20.907Z,69.90
2023-04-25T06:54:49.394Z,70.40
2023-04-25T07:19:46.438Z,67.90
2023-04-25T07:22:14.348Z,66.50
2023-04-25T07:29:04.813Z,67.60
2023-04-25T07:31:32.379Z,68.50
2023-04-25T07:34:01.997Z,66.00
2023-04-25T07:36:29.759Z,64.10
2023-04-25T07:54:19.296Z,59.60
2023-04-25T07:56:53.895Z,58.10
2023-04-25T07:59:27.569Z,58.70
2023-04-25T08:01:58.306Z,57.70
2023-04-25T08:04:26.869Z,57.40
2023-04-25T08:06:59.342Z,56.40
2023-04-25T08:09:34.804Z,55.40
2023-04-25T08:12:05.060Z,53.00
2023-04-25T08:14:37.008Z,51.80
2023-04-25T08:17:06.176Z,50.60
2023-04-25T08:19:35.965Z,51.00
2023-04-25T08:22:04.030Z,51.30
2023-04-25T08:24:45.105Z,50.50
2023-04-25T08:27:13.323Z,49.70
2023-04-25T08:29:43.051Z,47.60
2023-04-25T08:32:10.929Z,49.10
2023-04-25T08:34:44.791Z,49.10
2023-04-25T08:37:12.138Z,48.40
2023-04-25T08:39:53.367Z,46.70
2023-04-25T08:42:22.960Z,47.80
2023-04-25T08:44:51.580Z,47.70
2023-04-25T08:47:23.296Z,48.30
2023-04-25T08:49:56.030Z,47.60
2023-04-25T08:52:25.499Z,46.40
2023-04-25T08:54:55.240Z,47.80
2023-04-25T08:57:23.474Z,47.20
2023-04-25T08:59:53.893Z,47.50
2023-04-25T09:02:23.185Z,48.10
2023-04-25T09:04:55.464Z,47.90
2023-04-25T09:07:22.800Z,47.90
2023-04-25T09:09:51.227Z,48.00
2023-04-25T09:12:21.745Z,47.90
2023-04-25T09:15:06.406Z,46.40
2023-04-25T09:18:01.041Z,48.70
2023-04-25T09:20:59.716Z,49.20
2023-04-25T09:23:29.292Z,48.60
2023-04-25T09:25:56.955Z,47.60
2023-04-25T09:28:28.425Z,44.90
2023-04-25T09:31:01.490Z,45.40
2023-04-25T09:33:38.541Z,45.40
2023-04-25T09:36:09.558Z,46.00
2023-04-25T09:39:17.144Z,45.10
2023-04-25T09:41:55.054Z,43.30
2023-04-25T09:44:25.894Z,44.50
2023-04-25T09:46:55.135Z,45.20
2023-04-25T09:49:27.151Z,44.10
2023-04-25T09:52:02.928Z,44.10
2023-04-25T09:54:48.485Z,44.00
2023-04-25T09:57:25.295Z,46.00
2023-04-25T09:59:55.774Z,44.50
2023-04-25T10:02:27.498Z,44.70
2023-04-25T10:05:04.396Z,44.40
2023-04-25T10:07:39.708Z,45.00
2023-04-25T10:10:13.968Z,44.70
2023-04-25T10:12:45.170Z,44.70
2023-04-25T10:15:15.773Z,45.40
2023-04-25T10:17:43.567Z,43.60
2023-04-25T10:20:12.202Z,44.00
2023-04-25T10:22:45.281Z,44.10
2023-04-25T10:25:13.788Z,45.20
2023-04-25T10:27:41.326Z,45.70
2023-04-25T10:30:15.193Z,45.10
2023-04-25T10:32:46.543Z,45.10
2023-04-25T10:35:19.866Z,44.50
2023-04-25T10:38:14.839Z,45.50
2023-04-25T10:40:42.423Z,46.40
2023-04-25T10:43:32.285Z,46.50
2023-04-25T10:46:04.172Z,45.80
2023-04-25T10:48:32.377Z,45.60
2023-04-25T10:51:16.604Z,45.70
2023-04-25T10:53:49.354Z,45.80
2023-04-25T10:56:25.838Z,46.80
2023-04-25T10:59:03.734Z,48.30
2023-04-25T11:01:41.675Z,48.90
2023-04-25T11:04:31.624Z,48.20
2023-04-25T11:07:44.399Z,49.10
2023-04-25T11:10:15.460Z,49.60
2023-04-25T11:12:48.057Z,49.10
2023-04-25T11:15:16.112Z,49.60
2023-04-25T11:17:55.762Z,48.20
2023-04-25T11:30:18.059Z,49.80
2023-04-25T11:32:48.570Z,51.00
2023-04-25T11:35:17.592Z,49.80
2023-04-25T11:37:45.824Z,49.10
2023-04-25T11:40:13.563Z,49.80
2023-04-25T11:42:47.009Z,49.40
2023-04-25T11:45:15.606Z,49.70
2023-04-25T11:47:43.305Z,49.80
2023-04-25T11:50:11.306Z,49.60
2023-04-25T11:52:40.914Z,49.10
2023-04-25T11:55:15.343Z,48.50
2023-04-25T11:57:44.680Z,50.00
2023-04-25T12:00:17.633Z,49.90
2023-04-25T12:03:13.851Z,48.90
2023-04-25T12:05:41.709Z,48.40
2023-04-25T12:11:34.201Z,47.20
2023-04-25T12:14:36.167Z,47.10
2023-04-25T12:17:30.968Z,47.70
2023-04-25T12:20:00.219Z,48.00
2023-04-25T12:22:27.904Z,46.40
2023-04-25T12:24:55.872Z,46.20
2023-04-25T12:27:27.124Z,47.20
2023-04-25T12:29:57.488Z,48.30
2023-04-25T12:32:25.484Z,46.90
2023-04-25T12:34:53.445Z,47.60
2023-04-25T12:37:21.217Z,47.10
2023-04-25T12:39:48.589Z,49.10
2023-04-25T12:42:17.750Z,47.20
2023-04-25T12:44:45.181Z,47.90
2023-04-25T12:47:12.571Z,48.00
2023-04-25T12:50:42.212Z,48.90
2023-04-25T12:53:09.587Z,47.80
2023-04-25T12:55:42.274Z,48.00
2023-04-25T12:58:09.655Z,47.90
2023-04-25T13:00:40.717Z,47.80
2023-04-25T13:03:10.871Z,48.20
2023-04-25T13:05:42.467Z,48.10
2023-04-25T13:08:11.633Z,47.80
2023-04-25T13:10:46.087Z,47.70
2023-04-25T13:13:41.955Z,47.70
2023-04-25T13:16:09.914Z,47.10
2023-04-25T13:18:39.007Z,46.70
2023-04-25T13:21:16.754Z,47.30
2023-04-25T13:23:46.763Z,48.30
2023-04-25T13:26:14.367Z,47.60
2023-04-25T13:28:56.673Z,46.50
2023-04-25T13:31:24.172Z,48.00
2023-04-25T13:34:17.695Z,46.10
2023-04-25T13:36:46.722Z,47.50
2023-04-25T13:39:14.405Z,47.10
2023-04-25T13:41:42.167Z,46.00
2023-04-25T13:44:11.405Z,46.20
2023-04-25T13:46:46.331Z,47.70
2023-04-25T13:49:15.449Z,46.80
2023-04-25T13:51:43.516Z,46.60
2023-04-25T13:54:11.573Z,48.20
2023-04-25T13:56:39.569Z,48.00
2023-04-25T13:59:07.411Z,46.20
2023-04-25T14:01:36.533Z,46.20
2023-04-25T14:04:07.036Z,46.60
2023-04-25T14:07:45.083Z,46.50
2023-04-25T14:10:20.842Z,45.00
2023-04-25T14:12:48.387Z,47.00
2023-04-25T14:15:16.125Z,45.00
2023-04-25T14:17:44.192Z,45.60
2023-04-25T14:20:12.461Z,44.30
2023-04-25T14:22:43.801Z,45.30
2023-04-25T14:25:11.187Z,44.00
2023-04-25T14:27:38.633Z,43.60
2023-04-25T14:30:07.512Z,43.60
2023-04-25T14:32:35.314Z,44.40
2023-04-25T14:35:03.127Z,44.00
2023-04-25T14:37:31.226Z,43.90
2023-04-25T14:39:58.621Z,43.90
2023-04-25T14:42:26.656Z,44.30
2023-04-25T14:44:56.230Z,44.00
2023-04-25T14:47:24.972Z,43.80
2023-04-25T14:49:55.083Z,44.40
2023-04-25T14:52:22.569Z,44.30
2023-04-25T14:55:01.456Z,44.60
2023-04-25T15:10:16.103Z,44.60
2023-04-25T15:12:47.838Z,45.10
2023-04-25T15:15:22.808Z,45.60
2023-04-25T15:22:01.459Z,46.00
2023-04-25T15:30:40.279Z,46.10
2023-04-25T15:33:08.386Z,46.40
2023-04-25T15:35:35.984Z,46.50
2023-04-25T15:38:04.225Z,46.20
2023-04-25T15:43:38.880Z,46.90
2023-04-25T15:46:10.134Z,45.90
2023-04-25T15:48:38.358Z,45.90
2023-04-25T15:51:05.957Z,45.00
2023-04-25T16:01:59.655Z,44.60
2023-04-25T16:11:35.006Z,43.40
2023-04-25T16:14:02.477Z,43.50
2023-04-25T16:16:30.338Z,44.00
2023-04-25T16:18:57.733Z,44.00
2023-04-25T16:25:27.121Z,44.50
2023-04-25T16:27:55.555Z,44.30
2023-04-25T16:30:23.003Z,44.80
2023-04-25T16:32:50.778Z,44.30
2023-04-25T16:40:22.284Z,45.00
2023-04-25T16:42:49.823Z,44.90
2023-04-25T16:45:20.009Z,46.00
2023-04-25T16:47:47.501Z,46.10
2023-04-25T16:50:15.519Z,46.90
2023-04-25T16:52:44.798Z,46.60
2023-04-25T16:55:12.572Z,46.70
2023-04-25T16:57:41.229Z,46.80
2023-04-25T17:00:13.093Z,46.50
2023-04-25T17:02:41.571Z,46.30
2023-04-25T17:05:09.242Z,46.80
2023-04-25T17:08:01.834Z,45.60
2023-04-25T17:10:30.690Z,46.50
2023-04-25T17:12:58.153Z,46.40
2023-04-25T17:15:25.517Z,45.80
2023-04-25T17:17:52.956Z,46.60
2023-04-25T17:20:20.621Z,44.80
2023-04-25T17:23:14.874Z,45.20
2023-04-25T17:25:42.601Z,45.60
2023-04-25T17:28:30.981Z,44.90
2023-04-25T17:30:58.510Z,46.00
2023-04-25T17:33:27.083Z,45.90
2023-04-25T17:35:55.474Z,45.30
2023-04-25T17:41:30.392Z,45.60
2023-04-25T18:19:15.995Z,47.50
2023-04-25T18:24:55.311Z,47.30
2023-04-25T18:27:39.983Z,46.80
2023-04-25T18:30:10.535Z,47.40
2023-04-25T18:33:03.636Z,48.00
2023-04-25T18:35:59.551Z,47.30
2023-04-25T18:41:52.174Z,48.00
2023-04-25T18:44:22.962Z,48.40
2023-04-25T18:46:50.553Z,48.20
2023-04-25T18:49:18.084Z,48.50
2023-04-25T18:51:46.271Z,49.00
2023-04-25T18:54:13.837Z,49.00
2023-04-25T18:56:41.314Z,48.60
2023-04-25T18:59:33.618Z,48.50
2023-04-25T19:02:05.330Z,48.20
2023-04-25T19:04:33.351Z,48.60
2023-04-25T19:07:01.206Z,48.30
2023-04-25T19:09:28.665Z,48.10
2023-04-25T19:11:57.344Z,48.40
2023-04-25T19:14:25.857Z,49.30
2023-04-25T19:16:53.915Z,49.30
2023-04-25T19:19:21.778Z,49.50
2023-04-25T19:21:50.692Z,49.50
2023-04-25T19:24:18.281Z,49.60
2023-04-25T19:26:47.930Z,49.50
2023-04-25T19:29:17.199Z,49.30
2023-04-25T19:31:45.244Z,50.50
2023-04-25T19:34:13.831Z,50.10
2023-04-25T19:36:42.593Z,50.30
2023-04-25T19:39:10.992Z,50.30
2023-04-25T19:41:39.145Z,50.30
2023-04-25T19:44:08.682Z,50.40
2023-04-25T19:46:38.055Z,50.30
2023-04-25T19:49:09.100Z,50.30
2023-04-25T19:51:37.248Z,51.20
2023-04-25T20:47:37.115Z,54.80
2023-04-25T20:50:06.726Z,55.00
2023-04-25T20:52:35.479Z,55.80
2023-04-25T20:55:03.116Z,55.60
2023-04-25T20:57:31.955Z,55.90
2023-04-25T20:59:59.562Z,55.80
2023-04-25T21:02:27.441Z,56.20
2023-04-25T21:04:55.148Z,56.30
2023-04-25T21:07:22.906Z,55.90
2023-04-25T21:09:51.822Z,56.20
2023-04-25T21:12:20.002Z,56.40
2023-04-25T21:14:47.933Z,57.00
2023-04-25T21:17:15.261Z,56.50
2023-04-25T21:19:42.855Z,56.80
2023-04-25T21:22:10.210Z,56.30
2023-04-25T21:24:37.523Z,56.70
2023-04-25T21:27:05.088Z,57.60
2023-04-25T21:29:32.582Z,57.20
2023-04-25T21:31:59.969Z,56.70
2023-04-25T21:34:29.267Z,57.60
2023-04-25T21:36:56.612Z,57.40
2023-04-25T21:39:25.487Z,57.60
2023-04-25T21:41:53.933Z,57.40
2023-04-25T21:44:21.251Z,57.50
2023-04-25T21:46:48.591Z,57.90
2023-04-25T21:49:16.449Z,58.50
2023-04-25T21:51:44.440Z,58.30
2023-04-25T21:54:36.835Z,58.50
2023-04-25T21:57:04.605Z,57.50
2023-04-25T21:59:32.850Z,58.30
2023-04-25T22:02:00.173Z,58.10
2023-04-25T22:04:27.862Z,58.40
2023-04-25T22:06:56.862Z,58.30
2023-04-25T22:09:24.442Z,58.20
2023-04-25T22:11:53.206Z,57.80
2023-04-25T22:14:24.955Z,58.50
2023-04-25T22:16:54.312Z,58.30
2023-04-25T22:19:21.682Z,59.40
2023-04-25T22:21:51.999Z,59.30
2023-04-25T22:24:19.304Z,59.60
2023-04-25T22:26:46.962Z,59.50
2023-04-25T22:29:14.230Z,59.60
2023-04-25T22:31:41.654Z,59.90
2023-04-25T22:34:09.081Z,59.90
2023-04-25T22:36:36.375Z,60.40
2023-04-25T22:39:28.950Z,60.00
2023-04-25T22:41:56.200Z,60.30
2023-04-25T22:47:55.453Z,60.90
2023-04-25T22:50:22.946Z,61.20
2023-04-25T22:52:50.516Z,61.70
2023-04-25T22:56:09.182Z,63.00
2023-04-25T22:58:39.715Z,62.50
2023-04-25T23:01:08.323Z,62.60
2023-04-25T23:03:35.906Z,62.40
2023-04-25T23:06:03.803Z,62.50
2023-04-25T23:08:33.159Z,62.30
2023-04-25T23:11:00.664Z,62.30
2023-04-25T23:13:29.054Z,62.30
2023-04-25T23:17:13.664Z,63.20
2023-04-25T23:19:40.995Z,62.80
2023-04-25T23:22:09.026Z,63.50
2023-04-25T23:24:39.016Z,62.80
2023-04-25T23:27:06.717Z,63.30
2023-04-25T23:29:59.913Z,63.70
2023-04-25T23:32:27.393Z,63.40
2023-04-25T23:34:55.086Z,63.80
2023-04-25T23:37:22.395Z,64.00
2023-04-25T23:39:53.384Z,64.20
2023-04-25T23:42:21.182Z,64.60
2023-04-25T23:44:48.811Z,64.00
2023-04-25T23:47:17.610Z,64.30
2023-04-25T23:49:45.836Z,64.60
2023-04-25T23:52:39.209Z,64.30
2023-04-25T23:55:07.252Z,64.00
2023-04-25T23:57:36.232Z,64.50
